createdAt,value
2018-07-27T00:01:33.224Z,81.13
2018-07-27T00:04:01.743Z,80.60
2018-07-27T00:06:30.253Z,71.57
2018-07-27T00:08:58.764Z,70.53
2018-07-27T00:11:27.304Z,67.53
2018-07-27T00:13:55.760Z,62.07
2018-07-27T00:16:24.277Z,58.23
2018-07-27T00:18:52.932Z,53.60
2018-07-27T00:21:21.482Z,51.60
2018-07-27T00:23:50.040Z,50.00
2018-07-27T00:26:18.555Z,48.90
2018-07-27T00:28:47.046Z,50.13
2018-07-27T00:31:15.547Z,48.43
2018-07-27T00:33:44.030Z,48.17
2018-07-27T00:36:12.526Z,46.37
2018-07-27T00:38:40.694Z,46.00
2018-07-27T00:41:09.232Z,46.57
2018-07-27T00:43:37.689Z,47.37
2018-07-27T00:46:06.438Z,45.60
2018-07-27T00:48:34.964Z,45.97
2018-07-27T00:51:03.493Z,47.23
2018-07-27T00:53:31.949Z,50.47
2018-07-27T00:56:00.459Z,50.70
2018-07-27T00:58:28.958Z,49.90
2018-07-27T01:00:57.467Z,52.00
2018-07-27T01:03:25.959Z,49.60
2018-07-27T01:05:54.441Z,51.53
2018-07-27T01:08:22.884Z,51.07
2018-07-27T01:10:51.413Z,46.97
2018-07-27T01:13:19.872Z,49.60
2018-07-27T01:15:48.385Z,49.87
2018-07-27T01:18:16.875Z,46.60
2018-07-27T01:20:45.442Z,48.80
2018-07-27T01:23:13.960Z,48.57
2018-07-27T01:25:42.667Z,48.10
2018-07-27T01:28:11.109Z,47.77
2018-07-27T01:30:39.636Z,47.20
2018-07-27T01:33:08.084Z,46.33
2018-07-27T01:35:36.581Z,45.23
2018-07-27T01:38:05.041Z,45.80
2018-07-27T01:40:33.540Z,44.73
2018-07-27T01:43:02.025Z,43.43
2018-07-27T01:45:30.644Z,43.13
2018-07-27T01:47:59.114Z,41.97
2018-07-27T01:50:27.645Z,42.37
2018-07-27T01:52:56.116Z,41.47
2018-07-27T01:55:24.647Z,42.17
2018-07-27T01:57:53.224Z,41.67
2018-07-27T02:00:21.704Z,41.67
2018-07-27T02:02:50.185Z,44.27
2018-07-27T02:05:18.653Z,41.77
2018-07-27T02:07:47.153Z,42.37
2018-07-27T02:10:15.719Z,42.80
2018-07-27T02:12:44.200Z,43.50
2018-07-27T02:15:12.759Z,43.27
2018-07-27T02:17:41.603Z,44.53
2018-07-27T02:20:10.135Z,43.17
2018-07-27T02:22:38.600Z,43.80
2018-07-27T02:25:07.231Z,46.70
2018-07-27T02:27:35.720Z,46.73
2018-07-27T02:30:04.820Z,47.33
2018-07-27T02:32:33.316Z,50.23
2018-07-27T02:35:01.848Z,48.50
2018-07-27T02:37:30.388Z,48.70
2018-07-27T02:39:58.922Z,52.10
2018-07-27T02:42:27.093Z,50.30
2018-07-27T02:44:55.600Z,52.60
2018-07-27T02:47:24.102Z,52.57
2018-07-27T02:49:52.693Z,54.60
2018-07-27T02:52:21.169Z,54.90
2018-07-27T02:54:49.671Z,53.73
2018-07-27T02:57:18.169Z,54.37
2018-07-27T02:59:46.700Z,54.17
2018-07-27T03:02:15.212Z,55.47
2018-07-27T03:04:43.392Z,55.53
2018-07-27T03:07:11.949Z,58.23
2018-07-27T03:09:40.457Z,55.97
2018-07-27T03:12:09.028Z,55.00
2018-07-27T03:14:37.574Z,55.13
2018-07-27T03:17:06.420Z,55.00
2018-07-27T03:19:34.744Z,55.77
2018-07-27T03:22:03.175Z,56.17
2018-07-27T03:24:31.382Z,56.93
2018-07-27T03:26:59.903Z,54.43
2018-07-27T03:29:28.396Z,54.03
2018-07-27T03:31:56.913Z,53.70
2018-07-27T03:34:25.405Z,51.57
2018-07-27T03:36:53.890Z,52.50
2018-07-27T03:39:22.398Z,52.97
2018-07-27T03:41:51.010Z,53.83
2018-07-27T03:44:19.533Z,54.13
2018-07-27T03:46:48.016Z,51.40
2018-07-27T03:49:16.486Z,54.10
2018-07-27T03:51:44.992Z,51.97
2018-07-27T03:54:13.520Z,51.90
2018-07-27T03:56:41.976Z,54.00
2018-07-27T03:59:10.586Z,51.03
2018-07-27T04:01:39.102Z,53.43
2018-07-27T04:04:07.285Z,53.87
2018-07-27T04:06:35.851Z,50.93
2018-07-27T04:09:05.907Z,51.97
2018-07-27T04:11:34.408Z,55.00
2018-07-27T04:14:02.922Z,53.30
2018-07-27T04:16:31.393Z,51.33
2018-07-27T04:18:59.904Z,50.03
2018-07-27T04:21:28.136Z,51.23
2018-07-27T04:23:56.607Z,51.93
2018-07-27T04:26:25.177Z,52.13
2018-07-27T04:28:53.703Z,52.17
2018-07-27T04:31:22.225Z,53.43
2018-07-27T04:33:50.676Z,54.20
2018-07-27T04:36:19.234Z,53.00
2018-07-27T04:38:47.719Z,53.50
2018-07-27T04:41:16.208Z,54.10
2018-07-27T04:43:44.709Z,52.93
2018-07-27T04:46:13.179Z,53.50
2018-07-27T04:48:41.701Z,53.23
2018-07-27T04:51:10.227Z,53.10
2018-07-27T04:53:38.716Z,52.27
2018-07-27T04:56:07.272Z,51.67
2018-07-27T04:58:35.712Z,51.03
2018-07-27T05:01:04.297Z,50.80
2018-07-27T05:03:32.804Z,50.23
2018-07-27T05:06:01.408Z,50.47
2018-07-27T05:08:29.992Z,49.57
2018-07-27T05:10:58.505Z,51.17
2018-07-27T05:13:27.063Z,49.00
2018-07-27T05:15:55.564Z,47.67
2018-07-27T05:18:24.086Z,44.83
2018-07-27T05:20:52.334Z,44.93
2018-07-27T05:23:20.790Z,44.47
2018-07-27T05:25:49.280Z,42.83
2018-07-27T05:28:17.923Z,37.83
2018-07-27T05:30:46.632Z,36.57
2018-07-27T05:33:15.100Z,34.77
2018-07-27T05:35:43.646Z,32.30
2018-07-27T05:38:11.851Z,29.07
2018-07-27T05:40:40.368Z,26.93
2018-07-27T05:43:08.835Z,26.47
2018-07-27T05:45:37.359Z,24.27
2018-07-27T05:48:06.015Z,23.87
2018-07-27T05:50:34.460Z,23.20
2018-07-27T05:53:02.980Z,20.90
2018-07-27T05:55:31.446Z,20.60
2018-07-27T05:58:00.046Z,22.03
2018-07-27T06:00:28.889Z,21.37
2018-07-27T06:02:57.406Z,21.33
2018-07-27T06:05:26.126Z,22.80
2018-07-27T06:07:54.656Z,25.60
2018-07-27T06:10:23.161Z,27.20
2018-07-27T06:12:51.668Z,32.03
2018-07-27T06:15:20.190Z,38.37
2018-07-27T06:17:48.431Z,39.83
2018-07-27T06:20:17.006Z,38.37
2018-07-27T06:22:45.468Z,35.13
2018-07-27T06:25:13.999Z,32.37
2018-07-27T06:27:42.221Z,31.93
2018-07-27T06:30:10.706Z,29.83
2018-07-27T06:32:39.227Z,26.73
2018-07-27T06:35:07.701Z,23.57
2018-07-27T06:37:36.183Z,20.93
2018-07-27T06:40:04.844Z,19.40
2018-07-27T06:42:33.341Z,22.60
2018-07-27T06:45:01.796Z,27.93
2018-07-27T06:47:30.292Z,37.93
2018-07-27T06:49:58.802Z,74.23
2018-07-27T06:52:27.403Z,92.17
2018-07-27T06:54:55.854Z,134.00
2018-07-27T06:57:24.354Z,175.53
2018-07-27T06:59:52.875Z,216.07
2018-07-27T07:02:21.434Z,257.53
2018-07-27T07:04:49.881Z,283.30
2018-07-27T07:07:18.385Z,292.70
2018-07-27T07:09:46.879Z,299.90
2018-07-27T07:12:15.360Z,283.70
2018-07-27T07:14:43.877Z,255.63
2018-07-27T07:17:12.389Z,231.33
2018-07-27T07:19:40.863Z,210.97
2018-07-27T07:22:09.362Z,177.57
2018-07-27T07:24:37.918Z,121.23
2018-07-27T07:27:06.401Z,91.70
2018-07-27T07:29:34.904Z,74.80
2018-07-27T07:32:03.385Z,51.53
2018-07-27T07:34:31.888Z,39.80
2018-07-27T07:37:00.400Z,33.00
2018-07-27T07:39:28.559Z,26.93
2018-07-27T07:41:57.057Z,24.83
2018-07-27T07:44:25.581Z,26.10
2018-07-27T07:46:54.115Z,29.13
2018-07-27T07:49:22.646Z,33.23
2018-07-27T07:51:51.306Z,37.83
2018-07-27T07:54:19.811Z,40.37
2018-07-27T07:56:48.294Z,46.63
2018-07-27T07:59:16.806Z,52.90
2018-07-27T08:01:45.293Z,58.63
2018-07-27T08:04:13.767Z,63.50
2018-07-27T08:06:42.291Z,63.60
2018-07-27T08:09:10.743Z,72.67
2018-07-27T08:11:39.257Z,77.03
2018-07-27T08:14:07.956Z,79.10
2018-07-27T08:16:36.480Z,80.47
2018-07-27T08:19:05.350Z,77.20
2018-07-27T08:21:33.856Z,72.87
2018-07-27T08:24:02.313Z,70.27
2018-07-27T08:27:07.347Z,70.40
2018-07-27T08:29:37.072Z,65.50
2018-07-27T08:32:05.826Z,61.40
2018-07-27T08:34:34.377Z,56.90
2018-07-27T08:37:02.969Z,48.90
2018-07-27T08:39:32.423Z,45.77
2018-07-27T08:42:00.988Z,43.03
2018-07-27T08:44:30.764Z,33.07
2018-07-27T08:46:59.458Z,32.27
2018-07-27T08:49:27.923Z,29.17
2018-07-27T08:51:56.745Z,22.67
2018-07-27T08:54:25.310Z,22.17
2018-07-27T08:56:53.558Z,17.93
2018-07-27T08:59:22.065Z,16.30
2018-07-27T09:01:50.298Z,14.03
2018-07-27T09:04:18.847Z,15.47
2018-07-27T09:06:47.360Z,14.80
2018-07-27T09:09:16.871Z,15.37
2018-07-27T09:11:45.396Z,14.47
2018-07-27T09:14:14.010Z,14.77
2018-07-27T09:16:42.500Z,15.00
2018-07-27T09:19:11.016Z,14.03
2018-07-27T09:21:39.568Z,11.10
2018-07-27T09:24:08.112Z,10.00
2018-07-27T09:26:36.588Z,9.60
2018-07-27T09:29:05.164Z,9.30
2018-07-27T09:31:33.645Z,11.73
2018-07-27T09:34:02.229Z,11.63
2018-07-27T09:36:30.672Z,12.30
2018-07-27T09:38:59.176Z,12.70
2018-07-27T09:41:27.683Z,19.87
2018-07-27T09:43:56.332Z,24.30
2018-07-27T09:46:24.868Z,33.00
2018-07-27T09:48:54.673Z,48.70
2018-07-27T09:51:24.365Z,50.70
2018-07-27T09:53:52.950Z,55.27
2018-07-27T09:56:21.652Z,60.63
2018-07-27T09:58:50.146Z,61.53
2018-07-27T10:01:24.761Z,60.90
2018-07-27T10:03:53.748Z,57.60
2018-07-27T10:06:22.274Z,56.23
2018-07-27T10:08:50.788Z,53.50
2018-07-27T10:11:19.620Z,52.97
2018-07-27T10:13:48.088Z,47.20
2018-07-27T10:16:16.608Z,47.23
2018-07-27T10:18:45.154Z,45.73
2018-07-27T10:21:13.709Z,44.93
2018-07-27T10:23:42.301Z,45.17
2018-07-27T10:26:10.856Z,45.00
2018-07-27T10:28:39.416Z,45.67
2018-07-27T10:31:07.711Z,43.97
2018-07-27T10:33:36.230Z,44.37
2018-07-27T10:36:04.853Z,48.07
2018-07-27T10:38:33.272Z,49.47
2018-07-27T10:41:01.836Z,51.13
2018-07-27T10:43:30.427Z,52.47
2018-07-27T10:45:58.995Z,52.20
2018-07-27T10:48:27.195Z,50.87
2018-07-27T10:50:55.793Z,54.73
2018-07-27T10:53:24.333Z,56.90
2018-07-27T10:55:52.904Z,57.20
2018-07-27T10:58:21.459Z,57.40
2018-07-27T11:00:50.012Z,60.37
2018-07-27T11:03:18.577Z,61.57
2018-07-27T11:05:47.112Z,60.53
2018-07-27T11:08:15.624Z,61.30
2018-07-27T11:10:44.135Z,60.33
2018-07-27T11:13:12.720Z,60.00
2018-07-27T11:15:41.314Z,57.67
2018-07-27T11:18:09.891Z,54.60
2018-07-27T11:20:38.644Z,45.80
2018-07-27T11:23:07.166Z,39.17
2018-07-27T11:25:35.827Z,40.97
2018-07-27T11:28:04.420Z,38.87
2018-07-27T11:30:32.981Z,32.50
2018-07-27T11:33:01.670Z,26.20
2018-07-27T11:35:30.244Z,30.20
2018-07-27T11:37:58.478Z,32.23
2018-07-27T11:40:27.053Z,24.50
2018-07-27T11:42:55.596Z,23.80
2018-07-27T11:45:24.137Z,25.07
2018-07-27T11:47:52.759Z,25.60
2018-07-27T11:50:21.037Z,24.53
2018-07-27T11:52:49.583Z,24.23
2018-07-27T11:55:18.134Z,20.73
2018-07-27T11:57:46.672Z,17.87
2018-07-27T12:00:15.277Z,17.57
2018-07-27T12:02:43.531Z,18.03
2018-07-27T12:05:12.035Z,13.10
2018-07-27T12:07:40.440Z,12.07
2018-07-27T12:10:09.013Z,13.17
2018-07-27T12:12:37.575Z,12.30
2018-07-27T12:15:06.316Z,11.47
2018-07-27T12:17:34.773Z,10.83
2018-07-27T12:20:03.404Z,10.83
2018-07-27T12:22:32.001Z,11.17
2018-07-27T12:25:00.568Z,10.50
2018-07-27T12:27:29.241Z,10.13
2018-07-27T12:29:57.992Z,11.10
2018-07-27T12:32:26.316Z,10.73
2018-07-27T12:34:55.367Z,11.00
2018-07-27T12:37:24.005Z,10.90
2018-07-27T12:39:52.569Z,11.00
2018-07-27T12:42:21.154Z,11.37
2018-07-27T12:44:49.793Z,11.30
2018-07-27T12:47:18.368Z,11.23
2018-07-27T12:49:46.889Z,11.20
2018-07-27T12:52:15.534Z,11.83
2018-07-27T12:54:44.108Z,13.20
2018-07-27T12:57:12.760Z,13.77
2018-07-27T12:59:41.312Z,13.33
2018-07-27T13:02:09.871Z,12.20
2018-07-27T13:04:38.542Z,12.40
2018-07-27T13:07:07.125Z,13.10
2018-07-27T13:09:35.659Z,13.57
2018-07-27T13:12:04.210Z,14.30
2018-07-27T13:17:01.480Z,13.87
2018-07-27T13:19:30.025Z,14.93
2018-07-27T13:21:58.645Z,14.60
2018-07-27T13:26:55.716Z,15.40
2018-07-27T13:29:24.282Z,15.03
2018-07-27T13:31:56.000Z,15.83
2018-07-27T13:37:06.544Z,15.83
2018-07-27T13:39:35.743Z,16.40
2018-07-27T13:42:05.280Z,17.03
2018-07-27T13:44:34.956Z,17.60
2018-07-27T13:47:04.277Z,16.63
2018-07-27T13:49:32.820Z,17.20
2018-07-27T13:52:01.643Z,19.07
2018-07-27T13:54:31.358Z,19.13
2018-07-27T13:57:00.010Z,19.80
2018-07-27T13:59:28.517Z,20.57
2018-07-27T14:01:56.770Z,18.60
2018-07-27T14:04:25.321Z,17.43
2018-07-27T14:06:56.016Z,17.63
2018-07-27T14:09:24.540Z,18.37
2018-07-27T14:11:53.113Z,19.50
2018-07-27T14:14:21.746Z,19.20
2018-07-27T14:16:50.332Z,15.73
2018-07-27T14:19:19.424Z,17.30
2018-07-27T14:21:48.124Z,20.30
2018-07-27T14:24:16.742Z,20.17
2018-07-27T14:26:45.301Z,19.60
2018-07-27T14:29:13.582Z,19.60
2018-07-27T14:31:42.137Z,20.17
2018-07-27T14:34:10.907Z,21.30
2018-07-27T14:36:39.641Z,19.63
2018-07-27T14:39:09.828Z,21.20
2018-07-27T14:41:38.406Z,19.63
2018-07-27T14:44:06.955Z,17.87
2018-07-27T14:46:35.923Z,18.20
2018-07-27T14:49:09.421Z,15.37
2018-07-27T14:51:38.005Z,15.60
2018-07-27T14:54:06.954Z,15.27
2018-07-27T14:56:35.489Z,15.97
2018-07-27T14:59:04.061Z,17.90
2018-07-27T15:01:32.281Z,15.97
2018-07-27T15:04:00.919Z,16.30
2018-07-27T15:06:29.441Z,16.97
2018-07-27T15:08:57.988Z,16.50
2018-07-27T15:11:26.728Z,15.00
2018-07-27T15:13:55.305Z,14.60
2018-07-27T15:16:23.903Z,14.27
2018-07-27T15:18:52.520Z,14.77
2018-07-27T15:21:21.076Z,21.80
2018-07-27T15:23:49.659Z,19.23
2018-07-27T15:26:18.204Z,23.23
2018-07-27T15:28:46.797Z,23.80
2018-07-27T15:31:15.357Z,23.00
2018-07-27T15:33:43.888Z,20.03
2018-07-27T15:36:12.383Z,25.20
2018-07-27T15:38:41.199Z,21.67
2018-07-27T15:41:09.878Z,25.70
2018-07-27T15:43:38.479Z,28.57
2018-07-27T15:46:07.080Z,29.80
2018-07-27T15:48:35.719Z,31.57
2018-07-27T15:51:04.603Z,29.93
2018-07-27T15:53:33.108Z,28.40
2018-07-27T15:56:01.681Z,29.60
2018-07-27T15:58:30.286Z,28.70
2018-07-27T16:01:05.583Z,24.17
2018-07-27T16:03:34.104Z,29.73
2018-07-27T16:06:02.894Z,31.53
2018-07-27T16:08:31.465Z,35.50
2018-07-27T16:10:59.993Z,34.47
2018-07-27T16:13:28.598Z,33.43
2018-07-27T16:15:57.099Z,31.13
2018-07-27T16:18:25.621Z,28.00
2018-07-27T16:20:54.765Z,28.80
2018-07-27T16:23:23.296Z,30.67
2018-07-27T16:25:52.105Z,29.70
2018-07-27T16:28:20.643Z,26.70
2018-07-27T16:30:49.258Z,25.57
2018-07-27T16:33:17.830Z,33.10
2018-07-27T16:35:46.474Z,35.00
2018-07-27T16:38:15.014Z,36.37
2018-07-27T16:40:43.548Z,37.93
2018-07-27T16:43:12.111Z,35.70
2018-07-27T16:45:40.675Z,35.43
2018-07-27T16:48:09.246Z,35.20
2018-07-27T16:50:37.764Z,34.10
2018-07-27T16:53:06.334Z,37.40
2018-07-27T16:55:34.883Z,38.27
2018-07-27T16:58:03.494Z,38.80
2018-07-27T17:00:32.190Z,39.73
2018-07-27T17:03:00.415Z,37.90
2018-07-27T17:05:28.947Z,37.90
2018-07-27T17:07:57.501Z,37.70
2018-07-27T17:10:26.089Z,39.57
2018-07-27T17:12:54.648Z,38.47
2018-07-27T17:15:23.175Z,40.23
2018-07-27T17:17:51.739Z,38.80
2018-07-27T17:20:20.312Z,37.23
2018-07-27T17:22:48.864Z,37.23
2018-07-27T17:25:17.437Z,35.73
2018-07-27T17:27:46.033Z,39.43
2018-07-27T17:30:14.761Z,37.10
2018-07-27T17:32:43.420Z,36.70
2018-07-27T17:35:12.053Z,36.73
2018-07-27T17:37:40.721Z,40.17
2018-07-27T17:40:09.192Z,41.70
2018-07-27T17:42:37.788Z,40.93
2018-07-27T17:45:07.893Z,38.07
2018-07-27T17:47:37.414Z,36.13
2018-07-27T17:50:05.984Z,35.07
2018-07-27T17:52:34.579Z,31.53
2018-07-27T17:55:03.195Z,28.10
2018-07-27T17:57:31.769Z,26.43
2018-07-27T18:00:00.284Z,26.53
2018-07-27T18:02:28.856Z,24.40
2018-07-27T18:04:57.408Z,25.43
2018-07-27T18:07:25.763Z,28.33
2018-07-27T18:09:54.845Z,29.23
2018-07-27T18:12:23.567Z,29.47
2018-07-27T18:14:52.138Z,29.03
2018-07-27T18:17:20.378Z,27.33
2018-07-27T18:19:48.974Z,25.30
2018-07-27T18:22:17.808Z,23.90
2018-07-27T18:24:46.392Z,21.20
2018-07-27T18:27:14.946Z,20.77
2018-07-27T18:29:43.503Z,19.17
2018-07-27T18:32:12.021Z,19.83
2018-07-27T18:34:40.605Z,18.77
2018-07-27T18:37:09.168Z,18.40
2018-07-27T18:39:37.688Z,16.90
2018-07-27T18:42:06.337Z,17.43
2018-07-27T18:44:34.549Z,18.10
2018-07-27T18:47:02.799Z,17.17
2018-07-27T18:49:31.326Z,16.93
2018-07-27T18:51:59.902Z,16.63
2018-07-27T18:54:28.448Z,16.70
2018-07-27T18:56:57.004Z,19.50
2018-07-27T18:59:25.689Z,23.30
2018-07-27T19:01:54.276Z,28.97
2018-07-27T19:04:22.801Z,34.70
2018-07-27T19:06:51.364Z,41.10
2018-07-27T19:09:19.940Z,45.23
2018-07-27T19:11:48.629Z,48.67
2018-07-27T19:14:17.177Z,54.67
2018-07-27T19:16:45.740Z,53.00
2018-07-27T19:19:14.328Z,50.83
2018-07-27T19:21:42.560Z,47.90
2018-07-27T19:24:11.076Z,46.97
2018-07-27T19:26:39.330Z,40.13
2018-07-27T19:29:08.042Z,36.70
2018-07-27T19:31:36.592Z,32.03
2018-07-27T19:34:05.148Z,29.67
2018-07-27T19:36:33.741Z,26.27
2018-07-27T19:39:02.248Z,25.30
2018-07-27T19:41:30.840Z,24.23
2018-07-27T19:43:59.689Z,24.50
2018-07-27T19:46:28.165Z,25.43
2018-07-27T19:48:56.774Z,24.03
2018-07-27T19:51:25.287Z,24.13
2018-07-27T19:53:53.879Z,24.37
2018-07-27T19:56:22.478Z,24.90
2018-07-27T19:58:51.048Z,25.07
2018-07-27T20:01:20.524Z,25.50
2018-07-27T20:03:49.138Z,24.87
2018-07-27T20:06:17.345Z,24.33
2018-07-27T20:08:45.960Z,24.27
2018-07-27T20:11:14.533Z,22.33
2018-07-27T20:13:43.089Z,22.70
2018-07-27T20:16:11.728Z,17.87
2018-07-27T20:18:40.355Z,15.73
2018-07-27T20:21:08.995Z,12.53
2018-07-27T20:23:37.637Z,10.60
2018-07-27T20:26:06.253Z,12.87
2018-07-27T20:28:34.542Z,23.40
2018-07-27T20:31:03.104Z,33.10
2018-07-27T20:33:31.700Z,31.60
2018-07-27T20:36:00.237Z,20.27
2018-07-27T20:38:28.495Z,14.87
2018-07-27T20:40:57.042Z,34.90
2018-07-27T20:43:25.615Z,69.80
2018-07-27T20:45:54.293Z,96.57
2018-07-27T20:48:22.865Z,81.60
2018-07-27T20:50:51.473Z,80.27
2018-07-27T20:53:20.049Z,61.20
2018-07-27T20:55:48.632Z,52.97
2018-07-27T20:58:17.201Z,68.57
2018-07-27T21:00:45.701Z,93.03
2018-07-27T21:03:14.352Z,88.83
2018-07-27T21:05:42.876Z,78.37
2018-07-27T21:08:11.506Z,80.53
2018-07-27T21:10:40.133Z,66.77
2018-07-27T21:13:08.772Z,55.37
2018-07-27T21:15:37.286Z,48.47
2018-07-27T21:18:05.862Z,37.93
2018-07-27T21:20:34.973Z,32.87
2018-07-27T21:23:03.547Z,29.10
2018-07-27T21:25:32.105Z,22.10
2018-07-27T21:28:00.355Z,23.17
2018-07-27T21:30:28.931Z,26.33
2018-07-27T21:32:57.449Z,36.20
2018-07-27T21:35:26.024Z,45.90
2018-07-27T21:37:54.587Z,61.57
2018-07-27T21:40:23.150Z,75.20
2018-07-27T21:42:51.829Z,98.20
2018-07-27T21:45:20.412Z,120.47
2018-07-27T21:47:48.957Z,147.63
2018-07-27T21:50:17.532Z,155.97
2018-07-27T21:52:46.157Z,171.17
2018-07-27T21:55:21.259Z,186.20
2018-07-27T21:57:49.601Z,204.90
2018-07-27T22:00:18.087Z,221.40
2018-07-27T22:02:46.691Z,236.97
2018-07-27T22:05:15.402Z,235.37
2018-07-27T22:07:43.698Z,233.67
2018-07-27T22:10:12.260Z,233.37
2018-07-27T22:12:40.927Z,218.13
2018-07-27T22:15:13.229Z,206.97
2018-07-27T22:17:41.465Z,184.60
2018-07-27T22:20:10.042Z,178.80
2018-07-27T22:22:38.680Z,146.27
2018-07-27T22:25:07.288Z,139.90
2018-07-27T22:27:35.889Z,135.63
2018-07-27T22:30:06.391Z,114.17
2018-07-27T22:32:36.215Z,98.20
2018-07-27T22:35:04.920Z,99.63
2018-07-27T22:37:33.517Z,90.33
2018-07-27T22:40:02.244Z,67.77
2018-07-27T22:42:30.800Z,68.20
2018-07-27T22:45:00.047Z,62.43
2018-07-27T22:47:28.790Z,54.73
2018-07-27T22:49:57.337Z,53.23
2018-07-27T22:52:25.924Z,47.83
2018-07-27T22:54:54.476Z,42.53
2018-07-27T22:57:23.406Z,34.43
2018-07-27T22:59:52.172Z,30.63
2018-07-27T23:02:20.931Z,26.50
2018-07-27T23:04:49.561Z,25.93
2018-07-27T23:07:17.893Z,19.57
2018-07-27T23:09:48.002Z,17.30
2018-07-27T23:12:16.798Z,17.37
2018-07-27T23:14:45.437Z,17.70
2018-07-27T23:17:14.132Z,17.60
2018-07-27T23:19:42.725Z,17.10
2018-07-27T23:22:11.326Z,17.23
2018-07-27T23:24:39.842Z,16.77
2018-07-27T23:27:08.388Z,17.30
2018-07-27T23:29:36.920Z,15.63
2018-07-27T23:32:05.527Z,16.27
2018-07-27T23:34:34.072Z,16.23
2018-07-27T23:37:02.635Z,16.63
2018-07-27T23:39:31.144Z,16.63
2018-07-27T23:41:59.728Z,16.93
2018-07-27T23:44:28.219Z,16.83
2018-07-27T23:46:56.786Z,17.10
2018-07-27T23:49:25.365Z,17.00
2018-07-27T23:51:53.970Z,16.20
2018-07-27T23:54:22.575Z,16.27
2018-07-27T23:56:51.176Z,14.70
2018-07-27T23:59:19.710Z,15.60
